« 定点 富山空港 2019/7/10 wed | トップページ | 港フェスタ金沢2019 金沢港 2019/7/13 sat »

2019/07/11

大地 新千歳空港 2019/5/25 sat

一ケ月半の周回遅れでも、本題にたどりつかない遅歩ですが、夕方の新千歳は順光の撮影タイム。

RJCC 250800Z 16014KT CAVOK 21/09 Q1011 RMK A2986

20190525_rjcc_00ja613a

ADO29 RJTT-RJCC JA613A B767-381ER

20190525_rjcc_01ja308j

JAL2010 RJCC-RJOO JA308J B737-846

20190525_rjcc_02ja302j

JAL2009 RJOO-RJCC JA302J B737-846

20190525_rjcc_03ja853a

ANA4858 RJCH-RJCC JA853A DHC8-402Q

20190525_rjcc_04ja007d

JAL518 RJCC-RJTT JA007D B777-289

20190525_rjcc_05hl7735

ABL184 RKTN-RJCC HL7735 A321-231

20190525_rjcc_06blni

CRK693 RJCC-VHHH B-LNI A330-223

20190525_rjcc_07ja752a

ANA71 RJTT-RJCC JA752A B777-381

RJCC 250830Z 17015KT CAVOK 19/10 Q1011 RMK A2987

20190525_rjcc_08ja346j

JAL2505 RJBB-RJCC JA346J B737-846

朝ドラジェットってあるんだね

20190525_rjcc_09ja74an

ANA777 RJOO-RJCC JA74AN B737-881

20190525_rjcc_10ja60an

ANA4876 RJCK-RJCC JA60AN B737-881

20190525_rjcc_11ja23jj

JJP156 RJCC-RJBB JA23JJ A320-232

20190525_rjcc_12ja741a

ANA74 RJCC-RJTT JA741A B777-281ER

20190525_rjcc_13ja328j

JAL520 RJCC-RJTT JA328J B737-846

20190525_rjcc_14ja11va

VNL920 RJCC-RJAA JA11VA A320-214

20190525_rjcc_15ja737t

SKY794 RJCC-RJAH JA737T B737-8Q8

20190525_rjcc_16ja01gr

SJO206 RJCC-RJAA JA01GR B737-81D

20190525_rjcc_17ja86an

ANA712 RJCC-RJGG JA86AN B737-881

20190525_rjcc_18ja824a

ANA780 RJCC-RJOO JA824A B787-8

RJCC 250900Z 16014KT CAVOK 18/10 Q1011 RMK A2988

20190525_rjcc_19b18303

CAL134 RCKH-RJCC B-18303 A330-302

20190525_rjcc_20ja89an

ANA1261 RJNS-RJCC JA89AN B737-8AL

20190525_rjcc_21ja010d

JAL523 RJTT-RJCC JA010D B777-289

20190525_rjcc_22ja613a

ADO32 RJCC-RJTT JA613A B767-381ER

20190525_rjcc_23ja812p

APJ417 RJSS-RJCC JA812P A320-214

20190525_rjcc_24ja69an

ANA1717 RJBB-RJCC JA69AN B737-881

20190525_rjcc_25ja217j

JAL2907 RJSS-RJCC JA217J ERJ-170STD

20190525_rjcc_26b1651

CSN8444 RJCC-ZYTL B-1651 A320-232

20190525_rjcc_27ja859a

ANA4844 RJCW-RJCC JA859A DHC8-402Q

20190525_rjcc_28ja8979

JAL522 RJCC-RJTT JA8979 B777-289

20190525_rjcc_29rjcc

この日は空港温泉泊まり

 

|

« 定点 富山空港 2019/7/10 wed | トップページ | 港フェスタ金沢2019 金沢港 2019/7/13 sat »

千歳飛行場」カテゴリの記事

コメント

コメントを書く



(ウェブ上には掲載しません)


コメントは記事投稿者が公開するまで表示されません。



« 定点 富山空港 2019/7/10 wed | トップページ | 港フェスタ金沢2019 金沢港 2019/7/13 sat »